createdAt,value
2022-09-12T00:01:23.772Z,83.10
2022-09-12T00:03:58.220Z,82.30
2022-09-12T00:06:37.298Z,82.50
2022-09-12T00:09:12.039Z,82.90
2022-09-12T00:11:43.055Z,82.50
2022-09-12T00:14:14.821Z,83.00
2022-09-12T00:16:43.677Z,82.80
2022-09-12T00:19:12.021Z,83.10
2022-09-12T00:21:40.892Z,83.00
2022-09-12T00:24:09.295Z,82.90
2022-09-12T00:26:36.420Z,83.10
2022-09-12T00:29:03.694Z,83.20
2022-09-12T00:31:30.607Z,83.20
2022-09-12T00:34:00.744Z,83.20
2022-09-12T00:36:30.337Z,83.10
2022-09-12T00:38:57.661Z,83.10
2022-09-12T00:41:37.497Z,83.10
2022-09-12T00:44:39.175Z,82.30
2022-09-12T00:47:29.713Z,81.80
2022-09-12T00:50:13.117Z,81.20
2022-09-12T00:52:52.366Z,81.50
2022-09-12T00:55:32.107Z,82.30
2022-09-12T00:58:22.365Z,81.70
2022-09-12T01:00:50.157Z,82.90
2022-09-12T01:03:20.491Z,82.90
2022-09-12T01:06:15.404Z,82.70
2022-09-12T01:08:44.569Z,81.30
2022-09-12T01:11:13.309Z,82.90
2022-09-12T01:13:40.328Z,82.80
2022-09-12T01:16:08.489Z,82.90
2022-09-12T01:19:03.122Z,82.80
2022-09-12T01:22:02.605Z,81.80
2022-09-12T01:25:06.201Z,81.90
2022-09-12T01:28:23.245Z,82.00
2022-09-12T01:31:04.177Z,81.10
2022-09-12T01:34:08.050Z,82.00
2022-09-12T01:36:57.470Z,81.10
2022-09-12T01:39:51.077Z,81.40
2022-09-12T01:42:40.928Z,81.90
2022-09-12T01:45:37.678Z,81.60
2022-09-12T01:48:24.992Z,81.50
2022-09-12T01:51:13.664Z,82.00
2022-09-12T01:53:48.692Z,81.90
2022-09-12T01:56:29.682Z,82.80
2022-09-12T01:59:03.937Z,82.40
2022-09-12T02:01:39.560Z,81.40
2022-09-12T02:04:22.460Z,82.30
2022-09-12T02:07:06.144Z,82.50
2022-09-12T02:09:59.403Z,82.70
2022-09-12T02:12:37.209Z,81.20
2022-09-12T02:15:09.148Z,82.30
2022-09-12T02:17:44.243Z,82.20
2022-09-12T02:20:48.604Z,81.90
2022-09-12T02:23:26.537Z,82.50
2022-09-12T02:26:01.218Z,81.70
2022-09-12T02:28:35.189Z,82.30
2022-09-12T02:31:25.284Z,82.10
2022-09-12T02:34:10.334Z,81.50
2022-09-12T02:37:10.793Z,81.10
2022-09-12T02:39:38.846Z,81.00
2022-09-12T02:42:07.648Z,82.40
2022-09-12T02:44:36.470Z,82.40
2022-09-12T02:47:35.750Z,82.50
2022-09-12T02:50:05.395Z,81.30
2022-09-12T02:52:32.859Z,82.80
2022-09-12T02:55:00.209Z,82.80
2022-09-12T02:57:27.052Z,82.90
2022-09-12T02:59:59.220Z,82.90
2022-09-12T03:02:52.094Z,82.70
2022-09-12T03:05:32.876Z,83.00
2022-09-12T03:08:22.003Z,82.10
2022-09-12T03:11:18.446Z,83.00
2022-09-12T03:14:07.243Z,82.60
2022-09-12T03:16:37.774Z,81.60
2022-09-12T03:19:13.517Z,82.90
2022-09-12T03:22:13.421Z,82.20
2022-09-12T03:25:04.276Z,82.60
2022-09-12T03:27:39.250Z,82.80
2022-09-12T03:30:08.362Z,82.30
2022-09-12T03:32:53.841Z,82.60
2022-09-12T03:35:25.240Z,81.50
2022-09-12T03:37:53.276Z,82.90
2022-09-12T03:40:20.622Z,82.40
2022-09-12T03:42:47.693Z,82.40
2022-09-12T03:45:16.470Z,82.30
2022-09-12T03:47:43.317Z,82.30
2022-09-12T03:50:10.577Z,82.40
2022-09-12T03:52:37.523Z,82.40
2022-09-12T03:55:05.138Z,82.40
2022-09-12T03:57:32.093Z,82.50
2022-09-12T03:59:58.901Z,82.50
2022-09-12T04:02:25.812Z,82.50
2022-09-12T04:04:52.731Z,82.40
2022-09-12T04:07:19.543Z,82.30
2022-09-12T04:09:46.434Z,82.30
2022-09-12T04:12:14.043Z,82.30
2022-09-12T04:14:41.138Z,82.30
2022-09-12T04:17:08.468Z,82.20
2022-09-12T04:19:35.242Z,82.20
2022-09-12T04:22:02.031Z,82.20
2022-09-12T04:24:28.833Z,82.10
2022-09-12T04:26:55.783Z,82.00
2022-09-12T04:29:22.909Z,82.00
2022-09-12T04:31:50.482Z,82.10
2022-09-12T04:34:17.542Z,82.20
2022-09-12T04:36:44.356Z,82.20
2022-09-12T04:39:12.015Z,82.20
2022-09-12T04:41:41.929Z,82.20
2022-09-12T04:44:14.615Z,82.10
2022-09-12T04:46:46.666Z,81.90
2022-09-12T04:49:19.438Z,82.00
2022-09-12T04:51:47.185Z,82.10
2022-09-12T04:54:18.307Z,82.20
2022-09-12T04:56:49.024Z,82.10
2022-09-12T04:59:19.289Z,82.30
2022-09-12T05:01:46.676Z,82.40
2022-09-12T05:04:14.938Z,82.60
2022-09-12T05:06:42.984Z,82.70
2022-09-12T05:09:13.118Z,82.80
2022-09-12T05:14:32.405Z,82.80
2022-09-12T05:17:01.441Z,83.00
2022-09-12T05:19:30.190Z,83.10
2022-09-12T05:21:58.022Z,83.40
2022-09-12T05:24:26.167Z,83.60
2022-09-12T05:26:53.233Z,84.00
2022-09-12T05:29:20.096Z,84.20
2022-09-12T05:31:50.152Z,84.40
2022-09-12T05:34:17.009Z,84.40
2022-09-12T05:36:43.961Z,84.30
2022-09-12T05:39:10.748Z,84.50
2022-09-12T05:41:37.655Z,84.60
2022-09-12T05:44:07.339Z,84.70
2022-09-12T05:46:40.753Z,84.60
2022-09-12T05:49:11.937Z,84.20
2022-09-12T05:51:44.895Z,84.90
2022-09-12T05:54:15.752Z,84.60
2022-09-12T05:56:44.149Z,85.20
2022-09-12T05:59:20.560Z,82.90
2022-09-12T06:01:48.849Z,85.00
2022-09-12T06:04:16.687Z,86.10
2022-09-12T06:06:46.145Z,86.40
2022-09-12T06:09:16.134Z,86.50
2022-09-12T06:11:44.844Z,86.80
2022-09-12T06:14:15.011Z,87.00
2022-09-12T06:16:42.051Z,87.10
2022-09-12T06:19:19.997Z,87.50
2022-09-12T06:21:49.392Z,86.50
2022-09-12T06:24:18.913Z,87.90
2022-09-12T06:26:47.327Z,87.60
2022-09-12T06:29:15.219Z,87.90
2022-09-12T06:31:43.751Z,88.10
2022-09-12T06:34:14.465Z,87.80
2022-09-12T06:36:45.469Z,87.70
2022-09-12T06:39:16.496Z,87.60
2022-09-12T06:41:44.627Z,87.50
2022-09-12T06:44:19.430Z,87.90
2022-09-12T06:46:47.228Z,87.50
2022-09-12T06:49:14.573Z,88.00
2022-09-12T06:51:43.199Z,88.40
2022-09-12T06:54:14.075Z,88.00
2022-09-12T06:56:40.990Z,87.30
2022-09-12T06:59:07.823Z,88.30
2022-09-12T07:01:34.714Z,88.20
2022-09-12T07:04:04.178Z,88.00
2022-09-12T07:06:37.467Z,87.80
2022-09-12T07:09:07.660Z,87.70
2022-09-12T07:11:38.699Z,87.60
2022-09-12T07:14:08.041Z,87.50
2022-09-12T07:16:38.352Z,87.40
2022-09-12T07:19:08.142Z,86.00
2022-09-12T07:21:40.614Z,86.40
2022-09-12T07:24:10.399Z,86.40
2022-09-12T07:26:40.034Z,86.20
2022-09-12T07:29:34.875Z,86.10
2022-09-12T07:31:56.057Z,85.30
2022-09-12T07:34:22.816Z,85.50
2022-09-12T07:36:49.628Z,85.50
2022-09-12T07:39:16.479Z,85.70
2022-09-12T07:41:43.265Z,86.00
2022-09-12T07:44:10.125Z,86.70
2022-09-12T07:46:36.939Z,88.70
2022-09-12T07:49:03.800Z,90.50
2022-09-12T07:51:31.766Z,91.60
2022-09-12T07:53:58.914Z,92.60
2022-09-12T07:56:31.171Z,93.10
2022-09-12T07:58:58.844Z,92.50
2022-09-12T08:01:26.093Z,92.70
2022-09-12T08:03:59.525Z,91.90
2022-09-12T08:06:30.288Z,86.50
2022-09-12T08:08:58.417Z,90.00
2022-09-12T08:11:30.401Z,81.70
2022-09-12T08:13:58.557Z,87.10
2022-09-12T08:16:30.180Z,85.70
2022-09-12T08:18:57.706Z,82.10
2022-09-12T08:21:28.875Z,82.60
2022-09-12T08:24:05.990Z,78.80
2022-09-12T08:26:34.739Z,78.70
2022-09-12T08:29:01.938Z,77.10
2022-09-12T08:31:28.977Z,75.70
2022-09-12T08:33:57.415Z,75.70
2022-09-12T08:36:27.365Z,74.70
2022-09-12T08:39:00.009Z,71.70
2022-09-12T08:41:44.253Z,72.10
2022-09-12T08:44:56.067Z,63.60
2022-09-12T08:47:29.118Z,62.90
2022-09-12T08:50:14.650Z,65.80
2022-09-12T08:53:03.340Z,63.90
2022-09-12T08:55:53.508Z,63.60
2022-09-12T08:58:24.072Z,69.60
2022-09-12T09:01:22.431Z,68.60
2022-09-12T09:04:42.076Z,61.40
2022-09-12T09:07:33.093Z,63.00
2022-09-12T09:10:15.017Z,68.30
2022-09-12T09:13:11.905Z,66.50
2022-09-12T09:16:15.271Z,58.50
2022-09-12T09:18:44.785Z,65.90
2022-09-12T09:21:32.970Z,64.80
2022-09-12T09:24:12.813Z,56.80
2022-09-12T09:26:48.831Z,57.00
2022-09-12T09:29:36.833Z,59.20
2022-09-12T09:32:14.479Z,55.40
2022-09-12T09:34:41.735Z,60.00
2022-09-12T09:37:40.831Z,60.50
2022-09-12T09:40:42.180Z,53.60
2022-09-12T09:43:24.233Z,55.70
2022-09-12T09:45:53.206Z,52.90
2022-09-12T09:48:27.301Z,57.60
2022-09-12T09:50:54.225Z,54.90
2022-09-12T09:53:56.244Z,56.50
2022-09-12T09:56:42.353Z,50.20
2022-09-12T09:59:13.143Z,50.50
2022-09-12T10:01:57.540Z,52.40
2022-09-12T10:04:32.035Z,49.80
2022-09-12T10:07:02.425Z,54.00
2022-09-12T10:09:33.022Z,54.40
2022-09-12T10:12:19.347Z,53.20
2022-09-12T10:15:18.320Z,53.70
2022-09-12T10:17:49.507Z,48.00
2022-09-12T10:20:34.382Z,52.50
2022-09-12T10:23:37.401Z,47.90
2022-09-12T10:26:12.455Z,51.00
2022-09-12T10:28:49.509Z,47.50
2022-09-12T10:31:48.753Z,50.00
2022-09-12T10:34:27.873Z,45.70
2022-09-12T10:37:03.393Z,44.90
2022-09-12T10:39:31.355Z,44.80
2022-09-12T10:41:58.262Z,46.20
2022-09-12T10:44:30.705Z,45.90
2022-09-12T10:47:00.178Z,44.40
2022-09-12T10:49:37.955Z,45.00
2022-09-12T10:52:25.382Z,44.80
2022-09-12T10:54:53.573Z,42.90
2022-09-12T10:58:09.019Z,45.50
2022-09-12T11:00:46.760Z,43.60
2022-09-12T11:03:29.391Z,44.60
2022-09-12T11:06:01.654Z,43.60
2022-09-12T11:08:40.233Z,46.20
2022-09-12T11:11:37.297Z,47.40
2022-09-12T11:14:24.669Z,47.70
2022-09-12T11:17:16.015Z,46.10
2022-09-12T11:20:08.101Z,49.00
2022-09-12T11:23:20.473Z,46.90
2022-09-12T11:26:03.792Z,47.60
2022-09-12T11:29:03.170Z,47.80
2022-09-12T11:32:18.387Z,47.80
2022-09-12T11:34:55.259Z,48.40
2022-09-12T11:37:43.779Z,50.80
2022-09-12T11:40:22.856Z,50.80
2022-09-12T11:42:57.602Z,50.30
2022-09-12T11:45:36.137Z,51.20
2022-09-12T11:48:12.881Z,51.20
2022-09-12T11:50:40.019Z,51.60
2022-09-12T11:53:23.754Z,53.00
2022-09-12T11:56:12.043Z,50.60
2022-09-12T11:58:42.246Z,51.10
2022-09-12T12:01:21.632Z,53.00
2022-09-12T12:03:49.419Z,52.60
2022-09-12T12:06:36.753Z,53.70
2022-09-12T12:09:05.532Z,53.30
2022-09-12T12:11:58.360Z,53.50
2022-09-12T12:14:37.746Z,52.60
2022-09-12T12:17:04.745Z,53.40
2022-09-12T12:19:37.658Z,53.60
2022-09-12T12:22:24.513Z,52.10
2022-09-12T12:24:58.588Z,51.20
2022-09-12T12:27:55.074Z,52.50
2022-09-12T12:30:30.721Z,50.40
2022-09-12T12:33:02.308Z,52.00
2022-09-12T12:36:01.537Z,53.30
2022-09-12T12:38:59.988Z,51.50
2022-09-12T12:41:35.755Z,51.10
2022-09-12T12:44:44.275Z,51.80
2022-09-12T12:47:25.752Z,51.10
2022-09-12T12:49:59.808Z,51.40
2022-09-12T12:52:32.065Z,52.00
2022-09-12T12:55:04.813Z,53.20
2022-09-12T12:57:36.776Z,51.90
2022-09-12T13:00:26.396Z,51.70
2022-09-12T13:03:06.563Z,52.70
2022-09-12T13:05:50.228Z,51.70
2022-09-12T13:08:16.919Z,50.50
2022-09-12T13:11:16.702Z,53.90
2022-09-12T13:14:00.216Z,51.00
2022-09-12T13:16:40.257Z,50.20
2022-09-12T13:19:18.452Z,51.20
2022-09-12T13:22:03.058Z,53.00
2022-09-12T13:24:30.983Z,50.00
2022-09-12T13:26:58.129Z,53.90
2022-09-12T13:29:27.832Z,53.50
2022-09-12T13:32:00.704Z,53.10
2022-09-12T13:34:35.985Z,52.80
2022-09-12T13:37:30.102Z,51.40
2022-09-12T13:40:52.055Z,49.60
2022-09-12T13:43:42.177Z,49.40
2022-09-12T13:46:16.424Z,49.90
2022-09-12T13:48:44.382Z,53.80
2022-09-12T13:51:26.297Z,55.10
2022-09-12T13:53:57.736Z,51.20
2022-09-12T13:56:24.721Z,55.80
2022-09-12T13:59:01.351Z,55.10
2022-09-12T14:01:40.283Z,48.80
2022-09-12T14:04:41.459Z,48.40
2022-09-12T14:07:28.592Z,48.60
2022-09-12T14:09:59.429Z,48.90
2022-09-12T14:12:37.316Z,51.90
2022-09-12T14:15:05.327Z,48.90
2022-09-12T14:17:38.749Z,52.20
2022-09-12T14:20:16.505Z,47.90
2022-09-12T14:22:43.580Z,46.50
2022-09-12T14:25:25.139Z,50.10
2022-09-12T14:27:55.756Z,44.90
2022-09-12T14:30:34.169Z,49.40
2022-09-12T14:33:09.947Z,45.40
2022-09-12T14:35:45.629Z,47.30
2022-09-12T14:38:15.157Z,48.80
2022-09-12T14:40:53.297Z,47.30
2022-09-12T14:43:33.364Z,43.00
2022-09-12T14:46:19.641Z,41.10
2022-09-12T14:48:53.556Z,40.20
2022-09-12T14:51:26.607Z,42.80
2022-09-12T14:53:53.993Z,43.30
2022-09-12T14:56:36.565Z,43.60
2022-09-12T14:59:38.372Z,43.40
2022-09-12T15:02:14.306Z,40.60
2022-09-12T15:04:47.264Z,39.30
2022-09-12T15:07:36.674Z,42.40
2022-09-12T15:10:18.136Z,38.90
2022-09-12T15:12:45.092Z,41.60
2022-09-12T15:15:21.468Z,42.00
2022-09-12T15:17:48.255Z,38.50
2022-09-12T15:20:15.257Z,41.90
2022-09-12T15:22:42.673Z,41.60
2022-09-12T15:25:13.122Z,42.00
2022-09-12T15:27:42.715Z,41.80
2022-09-12T15:30:12.973Z,42.80
2022-09-12T15:32:43.158Z,43.80
2022-09-12T15:35:25.011Z,44.30
2022-09-12T15:37:51.913Z,40.40
2022-09-12T15:40:19.045Z,44.20
2022-09-12T15:42:45.947Z,43.20
2022-09-12T15:45:21.714Z,42.80
2022-09-12T15:47:48.567Z,39.00
2022-09-12T15:50:15.947Z,43.10
2022-09-12T15:52:42.771Z,43.00
2022-09-12T15:55:22.717Z,43.60
2022-09-12T15:57:50.292Z,40.60
2022-09-12T16:00:18.757Z,43.40
2022-09-12T16:02:49.352Z,42.90
2022-09-12T16:05:25.974Z,42.20
2022-09-12T16:07:54.819Z,38.30
2022-09-12T16:10:30.023Z,40.40
2022-09-12T16:12:57.823Z,39.00
2022-09-12T16:15:26.119Z,40.30
2022-09-12T16:17:53.698Z,40.00
2022-09-12T16:20:22.673Z,40.00
2022-09-12T16:22:49.520Z,39.90
2022-09-12T16:25:17.364Z,39.80
2022-09-12T16:27:44.780Z,39.90
2022-09-12T16:30:13.011Z,39.70
2022-09-12T16:32:40.135Z,39.80
2022-09-12T16:35:07.828Z,40.30
2022-09-12T16:37:34.700Z,40.20
2022-09-12T16:40:04.679Z,40.70
2022-09-12T16:42:31.712Z,40.70
2022-09-12T16:44:58.516Z,41.50
2022-09-12T16:47:25.326Z,41.50
2022-09-12T16:49:52.177Z,41.70
2022-09-12T16:52:19.354Z,42.10
2022-09-12T16:54:46.259Z,42.50
2022-09-12T16:57:13.141Z,42.60
2022-09-12T16:59:40.065Z,42.60
2022-09-12T17:02:08.064Z,42.80
2022-09-12T17:04:34.947Z,43.30
2022-09-12T17:07:01.803Z,44.30
2022-09-12T17:09:29.332Z,44.10
2022-09-12T17:11:57.321Z,44.30
2022-09-12T17:14:25.766Z,44.30
2022-09-12T17:16:53.097Z,44.70
2022-09-12T17:19:32.315Z,44.90
2022-09-12T17:21:59.192Z,44.90
2022-09-12T17:24:26.768Z,45.70
2022-09-12T17:26:54.063Z,46.20
2022-09-12T17:29:21.167Z,46.40
2022-09-12T17:31:48.819Z,46.80
2022-09-12T17:34:16.457Z,47.20
2022-09-12T17:36:45.454Z,47.60
2022-09-12T17:39:14.039Z,48.00
2022-09-12T17:41:42.622Z,48.20
2022-09-12T17:44:12.856Z,48.60
2022-09-12T17:46:40.920Z,48.60
2022-09-12T17:49:13.325Z,49.20
2022-09-12T17:51:41.597Z,49.50
2022-09-12T17:54:15.672Z,49.70
2022-09-12T17:56:45.396Z,49.70
2022-09-12T17:59:17.378Z,50.60
2022-09-12T18:02:03.428Z,50.80
2022-09-12T18:04:30.943Z,51.30
2022-09-12T18:07:00.197Z,51.60
2022-09-12T18:09:28.224Z,51.90
2022-09-12T18:11:55.445Z,52.20
2022-09-12T18:14:22.867Z,52.40
2022-09-12T18:16:50.281Z,52.80
2022-09-12T18:19:17.993Z,53.10
2022-09-12T18:21:45.084Z,53.40
2022-09-12T18:24:12.238Z,53.50
2022-09-12T18:26:39.327Z,53.70
2022-09-12T18:29:07.329Z,53.70
2022-09-12T18:31:34.499Z,54.10
2022-09-12T18:34:02.530Z,54.30
2022-09-12T18:36:30.592Z,54.60
2022-09-12T18:38:59.301Z,54.80
2022-09-12T18:41:28.851Z,55.20
2022-09-12T18:43:58.944Z,55.50
2022-09-12T18:46:29.015Z,55.60
2022-09-12T18:48:57.936Z,55.80
2022-09-12T18:51:34.037Z,56.00
2022-09-12T18:54:06.337Z,56.30
2022-09-12T18:56:37.633Z,56.40
2022-09-12T18:59:07.097Z,56.60
2022-09-12T19:01:37.487Z,56.80
2022-09-12T19:04:07.325Z,57.10
2022-09-12T19:06:41.617Z,57.30
2022-09-12T19:09:10.450Z,57.50
2022-09-12T19:11:42.583Z,57.60
2022-09-12T19:14:09.391Z,57.90
2022-09-12T19:16:38.139Z,58.00
2022-09-12T19:19:05.103Z,58.20
2022-09-12T19:21:34.522Z,58.40
2022-09-12T19:24:06.346Z,58.50
2022-09-12T19:26:34.498Z,58.60
2022-09-12T19:29:02.956Z,58.70
2022-09-12T19:31:31.186Z,58.80
2022-09-12T19:34:07.781Z,58.90
2022-09-12T19:36:50.917Z,59.00
2022-09-12T19:39:19.829Z,59.10
2022-09-12T19:41:47.851Z,59.20
2022-09-12T19:44:14.750Z,59.30
2022-09-12T19:46:41.848Z,59.40
2022-09-12T19:49:11.660Z,59.60
2022-09-12T19:51:38.709Z,59.70
2022-09-12T19:54:06.147Z,59.80
2022-09-12T19:56:33.046Z,59.90
2022-09-12T19:59:00.128Z,60.10
2022-09-12T20:01:28.633Z,60.20
2022-09-12T20:03:57.851Z,60.30
2022-09-12T20:06:25.679Z,60.50
2022-09-12T20:08:52.577Z,60.60
2022-09-12T20:11:21.914Z,60.80
2022-09-12T20:13:49.481Z,61.00
2022-09-12T20:16:25.142Z,61.00
2022-09-12T20:19:01.692Z,61.10
2022-09-12T20:21:32.104Z,61.20
2022-09-12T20:24:13.297Z,61.30
2022-09-12T20:26:40.538Z,61.40
2022-09-12T20:29:08.624Z,60.10
2022-09-12T20:31:38.330Z,61.30
2022-09-12T20:34:06.039Z,61.50
2022-09-12T20:36:33.591Z,61.60
2022-09-12T20:39:02.502Z,61.80
2022-09-12T20:41:33.770Z,62.10
2022-09-12T20:44:00.853Z,62.10
2022-09-12T20:46:28.742Z,62.30
2022-09-12T20:48:55.862Z,62.30
2022-09-12T20:51:25.577Z,62.50
2022-09-12T20:53:58.332Z,62.60
2022-09-12T20:56:27.095Z,62.90
2022-09-12T20:58:55.674Z,62.80
2022-09-12T21:01:23.142Z,62.90
2022-09-12T21:03:50.474Z,62.90
2022-09-12T21:06:18.827Z,63.00
2022-09-12T21:08:48.440Z,63.10
2022-09-12T21:11:16.985Z,63.20
2022-09-12T21:13:44.331Z,63.30
2022-09-12T21:16:18.512Z,63.40
2022-09-12T21:18:46.217Z,63.50
2022-09-12T21:21:15.471Z,63.60
2022-09-12T21:23:42.751Z,63.60
2022-09-12T21:26:10.222Z,63.60
2022-09-12T21:28:37.160Z,63.80
2022-09-12T21:31:04.397Z,63.90
2022-09-12T21:33:31.294Z,63.90
2022-09-12T21:36:07.948Z,63.90
2022-09-12T21:38:35.210Z,64.10
2022-09-12T21:41:13.757Z,64.00
2022-09-12T21:43:41.767Z,64.20
2022-09-12T21:46:09.760Z,64.20
2022-09-12T21:48:37.537Z,64.30
2022-09-12T21:51:05.389Z,64.30
2022-09-12T21:53:32.341Z,64.40
2022-09-12T21:56:03.787Z,64.40
2022-09-12T21:58:31.165Z,64.70
2022-09-12T22:00:58.143Z,64.70
2022-09-12T22:03:26.017Z,64.70
2022-09-12T22:06:01.980Z,64.80
2022-09-12T22:08:31.143Z,65.10
2022-09-12T22:11:07.844Z,65.00
2022-09-12T22:13:36.567Z,65.00
2022-09-12T22:16:03.926Z,65.00
2022-09-12T22:18:35.005Z,65.10
2022-09-12T22:21:13.951Z,65.80
2022-09-12T22:23:59.868Z,65.50
2022-09-12T22:26:27.514Z,65.50
2022-09-12T22:28:54.883Z,65.50
2022-09-12T22:31:22.444Z,65.70
2022-09-12T22:33:51.439Z,65.70
2022-09-12T22:36:18.311Z,65.80
2022-09-12T22:38:45.107Z,65.70
2022-09-12T22:41:13.207Z,65.70
2022-09-12T22:43:40.175Z,65.80
2022-09-12T22:46:14.745Z,65.80
2022-09-12T22:48:42.759Z,66.00
2022-09-12T22:51:11.261Z,65.80
2022-09-12T22:53:38.779Z,65.90
2022-09-12T22:56:07.006Z,65.90
2022-09-12T22:58:38.630Z,66.00
2022-09-12T23:01:06.545Z,66.00
2022-09-12T23:03:34.044Z,66.10
2022-09-12T23:06:00.929Z,66.20
2022-09-12T23:08:29.551Z,66.30
2022-09-12T23:11:19.030Z,66.30
2022-09-12T23:13:48.786Z,66.40
2022-09-12T23:16:25.267Z,66.30
2022-09-12T23:18:52.570Z,66.50
2022-09-12T23:21:21.916Z,66.40
2022-09-12T23:23:49.861Z,66.40
2022-09-12T23:26:24.065Z,66.50
2022-09-12T23:28:57.395Z,66.80
2022-09-12T23:31:29.719Z,66.80
2022-09-12T23:33:59.295Z,66.80
2022-09-12T23:36:27.195Z,66.80
2022-09-12T23:38:55.327Z,66.90
2022-09-12T23:41:22.969Z,67.10
2022-09-12T23:43:49.954Z,67.10
2022-09-12T23:46:18.976Z,67.20
2022-09-12T23:48:46.135Z,67.30
2022-09-12T23:51:13.286Z,67.40
2022-09-12T23:53:40.454Z,67.50
2022-09-12T23:56:07.611Z,67.60
2022-09-12T23:58:34.405Z,67.60
